Time;durP1;ratioP1;P1;durP2;ratioP2;P2;SDS_P1;SDS_P2;PMS_P1;PMS_P2;Temp;Humidity;BMP_temperature;BMP_pressure;BME280_temperature;BME280_humidity;BME280_pressure;Samples;Min_cycle;Max_cycle;Signal;HPM_P1;HPM_P2
2021/09/14 00:00:15;;;;;;;6.40;4.18;;;18.20;99.90;;;;;;4881154;29;20051;-79
2021/09/14 00:02:42;;;;;;;8.50;4.78;;;18.00;99.90;;;;;;4880969;29;20049;-79
2021/09/14 00:05:11;;;;;;;6.05;4.40;;;17.90;99.90;;;;;;4880872;29;20055;-79
2021/09/14 00:07:38;;;;;;;7.60;4.63;;;17.90;99.90;;;;;;4880710;29;20063;-79
2021/09/14 00:10:07;;;;;;;7.32;4.60;;;17.80;99.90;;;;;;4880856;29;20063;-79
2021/09/14 00:12:34;;;;;;;6.05;4.30;;;17.80;99.90;;;;;;4880839;29;20144;-79
2021/09/14 00:15:02;;;;;;;6.32;4.07;;;17.80;99.90;;;;;;4880710;29;20057;-79
2021/09/14 00:17:29;;;;;;;7.03;4.38;;;17.80;99.90;;;;;;4880819;29;20055;-79
2021/09/14 00:19:56;;;;;;;6.93;3.40;;;17.90;99.90;;;;;;4880717;29;20410;-79
2021/09/14 00:22:24;;;;;;;7.22;4.40;;;17.90;99.90;;;;;;4880682;29;20049;-79
2021/09/14 00:24:51;;;;;;;7.57;4.47;;;18.00;99.90;;;;;;4880597;29;20053;-79
2021/09/14 00:27:18;;;;;;;6.18;4.35;;;18.00;99.90;;;;;;4880442;29;20048;-79
2021/09/14 00:29:45;;;;;;;5.90;4.00;;;18.00;99.90;;;;;;4880386;29;20407;-78
2021/09/14 00:32:12;;;;;;;5.78;4.10;;;18.00;99.90;;;;;;4880368;29;20053;-79
2021/09/14 00:34:39;;;;;;;6.13;4.10;;;18.00;99.90;;;;;;4880187;29;20044;-79
2021/09/14 00:37:06;;;;;;;6.60;3.70;;;18.00;99.90;;;;;;4880548;29;20053;-79
2021/09/14 00:39:35;;;;;;;5.55;3.95;;;18.00;99.90;;;;;;4880271;29;20057;-79
2021/09/14 00:42:02;;;;;;;6.05;3.72;;;18.00;99.90;;;;;;4880488;29;20071;-79
2021/09/14 00:44:29;;;;;;;6.25;4.07;;;17.90;99.90;;;;;;4880083;29;20407;-79
2021/09/14 00:46:56;;;;;;;5.88;3.75;;;17.90;99.90;;;;;;4880064;29;20461;-79
2021/09/14 00:49:23;;;;;;;5.63;3.60;;;17.90;99.90;;;;;;4879965;29;20052;-79
2021/09/14 00:51:50;;;;;;;5.28;3.70;;;17.90;99.90;;;;;;4880203;29;20049;-79
2021/09/14 00:54:18;;;;;;;5.53;3.70;;;17.80;99.90;;;;;;4879961;29;20514;-79
2021/09/14 00:56:46;;;;;;;6.32;4.00;;;17.90;99.90;;;;;;4880063;29;20144;-79
2021/09/14 00:59:13;;;;;;;6.85;3.80;;;17.80;99.90;;;;;;4879822;29;20053;-79
2021/09/14 01:01:40;;;;;;;6.25;3.38;;;17.90;99.90;;;;;;4879772;29;20053;-79
2021/09/14 01:04:09;;;;;;;5.75;3.50;;;17.80;99.90;;;;;;4879738;29;20505;-78
2021/09/14 01:06:37;;;;;;;6.78;3.80;;;17.80;99.90;;;;;;4879913;29;20049;-79
2021/09/14 01:09:05;;;;;;;5.53;4.07;;;17.80;99.90;;;;;;4879689;29;20483;-79
2021/09/14 01:11:32;;;;;;;5.22;3.67;;;17.80;99.90;;;;;;4879764;29;20052;-79
2021/09/14 01:14:06;;;;;;;8.18;4.05;;;17.80;99.90;;;;;;4879646;29;20509;-79
2021/09/14 01:16:35;;;;;;;6.20;3.80;;;17.80;99.90;;;;;;4879918;29;20056;-78
2021/09/14 01:19:03;;;;;;;6.30;3.92;;;17.80;99.90;;;;;;4879741;29;20131;-79
2021/09/14 01:21:31;;;;;;;5.90;3.95;;;17.80;99.90;;;;;;4879642;29;20059;-78
2021/09/14 01:24:01;;;;;;;5.95;4.10;;;17.80;99.90;;;;;;4879493;29;20057;-78
2021/09/14 01:26:29;;;;;;;5.40;3.72;;;17.80;99.90;;;;;;4879527;29;20055;-79
2021/09/14 01:28:56;;;;;;;6.05;4.00;;;17.80;99.90;;;;;;4879758;29;20132;-78
2021/09/14 01:31:24;;;;;;;5.35;3.33;;;17.80;99.90;;;;;;4879621;29;20063;-79
2021/09/14 01:33:52;;;;;;;6.22;3.92;;;17.70;99.90;;;;;;4879406;29;20045;-78
2021/09/14 01:36:20;;;;;;;5.85;3.95;;;17.70;99.90;;;;;;4879418;29;20418;-79
2021/09/14 01:38:48;;;;;;;4.93;3.50;;;17.80;99.90;;;;;;4879313;29;20053;-78
2021/09/14 01:41:16;;;;;;;6.38;4.03;;;17.70;99.90;;;;;;4879235;29;20072;-78
2021/09/14 01:43:43;;;;;;;5.05;3.60;;;17.70;99.90;;;;;;4879408;29;20136;-79
2021/09/14 01:46:10;;;;;;;6.40;3.80;;;17.70;99.90;;;;;;4879298;29;20049;-79
2021/09/14 01:48:37;;;;;;;7.05;3.60;;;17.60;99.90;;;;;;4879173;29;20156;-78
2021/09/14 01:51:05;;;;;;;6.38;3.95;;;17.60;99.90;;;;;;4878849;29;20132;-79
2021/09/14 01:53:32;;;;;;;6.68;3.90;;;17.60;99.90;;;;;;4879298;29;20480;-79
2021/09/14 01:56:02;;;;;;;5.68;3.50;;;17.50;99.90;;;;;;4879483;29;20135;-78
2021/09/14 01:58:31;;;;;;;5.10;3.53;;;17.50;99.90;;;;;;4879173;29;20049;-78
2021/09/14 02:01:03;;;;;;;6.22;3.80;;;17.50;99.90;;;;;;4879312;29;20128;-79
2021/09/14 02:03:37;;;;;;;6.47;3.70;;;17.40;99.90;;;;;;4879053;29;20484;-78
2021/09/14 02:06:29;;;;;;;7.18;4.13;;;17.30;99.90;;;;;;4879113;29;20053;-79
2021/09/14 02:09:17;;;;;;;7.15;4.05;;;17.20;99.90;;;;;;4879167;29;20057;-79
2021/09/14 02:38:15;;;;;;;6.45;4.13;;;16.80;99.90;;;;;;4862312;29;20053;-79
2021/09/14 02:42:53;;;;;;;4.97;3.65;;;16.90;99.90;;;;;;4879043;29;20129;-78
2021/09/14 02:58:54;;;;;;;6.10;3.85;;;16.90;99.90;;;;;;4878668;29;20052;-78
2021/09/14 03:01:22;;;;;;;6.55;3.90;;;16.90;99.90;;;;;;4878652;29;20059;-78
2021/09/14 03:03:53;;;;;;;5.22;3.90;;;16.90;99.90;;;;;;4882057;29;20075;-78
2021/09/14 03:06:20;;;;;;;6.05;3.83;;;16.90;99.90;;;;;;4881908;29;20078;-78
2021/09/14 03:08:48;;;;;;;6.88;3.85;;;16.90;99.90;;;;;;4881803;29;20097;-78
2021/09/14 03:11:18;;;;;;;5.40;3.65;;;16.90;99.90;;;;;;4882014;29;20403;-78
2021/09/14 03:13:45;;;;;;;6.28;3.65;;;16.90;99.90;;;;;;4881979;29;20053;-78
2021/09/14 03:16:14;;;;;;;4.80;3.60;;;16.90;99.90;;;;;;4881864;29;20056;-78
2021/09/14 03:18:42;;;;;;;7.78;3.92;;;16.80;99.90;;;;;;4881713;29;20045;-78
2021/09/14 03:21:12;;;;;;;5.22;3.83;;;16.80;99.90;;;;;;4881605;29;20049;-78
2021/09/14 03:23:39;;;;;;;7.05;3.53;;;16.80;99.90;;;;;;4881599;29;20063;-78
2021/09/14 03:26:07;;;;;;;5.80;3.75;;;16.80;99.90;;;;;;4881452;29;20063;-78
2021/09/14 03:28:34;;;;;;;4.97;3.60;;;16.80;99.90;;;;;;4881572;29;20055;-78
2021/09/14 03:31:01;;;;;;;6.40;3.63;;;16.80;99.90;;;;;;4881451;29;20056;-78
2021/09/14 03:33:28;;;;;;;5.20;3.65;;;16.90;99.90;;;;;;4881484;29;20049;-78
2021/09/14 03:35:55;;;;;;;5.85;3.60;;;16.80;99.90;;;;;;4881285;29;20127;-78
2021/09/14 03:38:24;;;;;;;10.43;3.97;;;16.90;99.90;;;;;;4881508;29;20053;-78
2021/09/14 03:40:51;;;;;;;5.75;3.63;;;16.90;99.90;;;;;;4881276;29;20562;-78
2021/09/14 03:43:18;;;;;;;6.10;3.97;;;16.90;99.90;;;;;;4881680;29;20049;-78
2021/09/14 03:45:47;;;;;;;5.85;3.40;;;16.90;99.90;;;;;;4881162;29;20059;-78
2021/09/14 03:48:16;;;;;;;5.47;3.92;;;16.90;99.90;;;;;;4881227;29;20060;-78
2021/09/14 03:50:44;;;;;;;5.95;3.67;;;16.90;99.90;;;;;;4881049;29;20055;-78
2021/09/14 03:53:11;;;;;;;5.00;3.40;;;16.80;99.90;;;;;;4881074;29;20480;-78
2021/09/14 03:55:40;;;;;;;5.50;3.70;;;16.80;99.90;;;;;;4881210;29;20075;-78
2021/09/14 03:58:07;;;;;;;6.60;4.10;;;16.80;99.90;;;;;;4880990;29;20053;-78
2021/09/14 04:00:34;;;;;;;6.70;4.40;;;16.80;99.90;;;;;;4880926;29;20052;-78
2021/09/14 04:03:04;;;;;;;5.22;3.90;;;16.80;99.90;;;;;;4880850;29;20555;-78
2021/09/14 04:05:37;;;;;;;6.03;3.60;;;16.80;99.90;;;;;;4880997;29;20049;-78
2021/09/14 04:10:47;;;;;;;6.55;3.95;;;16.70;99.90;;;;;;4880478;29;20049;-78
2021/09/14 04:13:14;;;;;;;6.65;3.92;;;16.70;99.90;;;;;;4880266;29;20080;-78
2021/09/14 04:15:41;;;;;;;5.90;3.85;;;16.70;99.90;;;;;;4880763;29;20412;-78
2021/09/14 04:18:10;;;;;;;6.07;4.15;;;16.70;99.90;;;;;;4880795;29;20128;-78
2021/09/14 04:20:38;;;;;;;6.20;3.90;;;16.70;99.90;;;;;;4880772;29;20084;-79
2021/09/14 04:23:05;;;;;;;7.13;3.67;;;16.60;99.90;;;;;;4880535;29;20049;-78
2021/09/14 04:25:32;;;;;;;5.82;3.78;;;16.60;99.90;;;;;;4880466;29;20143;-78
2021/09/14 04:28:00;;;;;;;7.45;3.78;;;16.60;99.90;;;;;;4880410;29;20406;-78
2021/09/14 04:30:27;;;;;;;5.20;3.67;;;16.60;99.90;;;;;;4880351;29;20053;-78
2021/09/14 04:32:54;;;;;;;5.20;3.45;;;16.50;99.90;;;;;;4880474;29;20059;-78
2021/09/14 04:35:21;;;;;;;5.90;3.80;;;16.50;99.90;;;;;;4880278;29;20055;-78
2021/09/14 04:37:48;;;;;;;6.38;3.72;;;16.50;99.90;;;;;;4880130;29;20578;-78
2021/09/14 04:40:15;;;;;;;6.85;3.60;;;16.40;99.90;;;;;;4880219;29;20159;-78
2021/09/14 04:42:42;;;;;;;7.35;3.80;;;16.40;99.90;;;;;;4880337;29;20132;-78
2021/09/14 04:45:12;;;;;;;5.57;3.80;;;16.40;99.90;;;;;;4880190;29;20142;-78
2021/09/14 04:47:39;;;;;;;6.55;3.58;;;16.40;99.90;;;;;;4880015;29;20483;-78
2021/09/14 04:50:07;;;;;;;7.75;3.75;;;16.40;99.90;;;;;;4879520;29;20117;-78
2021/09/14 04:52:34;;;;;;;6.15;3.80;;;16.40;99.90;;;;;;4880062;29;20082;-78
2021/09/14 04:55:01;;;;;;;5.85;4.00;;;16.40;99.90;;;;;;4879844;29;20049;-78
2021/09/14 04:57:28;;;;;;;6.72;4.53;;;16.30;99.90;;;;;;4879860;29;20045;-78
2021/09/14 04:59:55;;;;;;;9.15;4.55;;;16.40;99.90;;;;;;4879818;29;20051;-78
2021/09/14 05:02:24;;;;;;;5.72;3.83;;;16.30;99.90;;;;;;4879907;29;20136;-78
2021/09/14 05:04:51;;;;;;;6.45;4.43;;;16.30;99.90;;;;;;4879826;29;20049;-78
2021/09/14 05:07:18;;;;;;;6.88;4.07;;;16.30;99.90;;;;;;4879699;29;20056;-78
2021/09/14 05:09:45;;;;;;;6.28;4.63;;;16.30;99.90;;;;;;4879677;29;20053;-78
2021/09/14 05:12:12;;;;;;;7.50;4.03;;;16.30;99.90;;;;;;4879483;29;20049;-78
2021/09/14 05:14:39;;;;;;;6.70;4.60;;;16.30;99.90;;;;;;4879609;29;20487;-78
2021/09/14 05:17:06;;;;;;;8.15;4.40;;;16.30;99.90;;;;;;4879699;29;20053;-78
2021/09/14 05:19:37;;;;;;;6.88;4.15;;;16.30;99.90;;;;;;4879675;29;20055;-78
2021/09/14 05:22:05;;;;;;;5.45;3.90;;;16.30;99.90;;;;;;4879377;29;20053;-78
2021/09/14 05:24:33;;;;;;;6.10;4.30;;;16.30;99.90;;;;;;4878952;29;20049;-78
2021/09/14 05:27:01;;;;;;;6.28;4.10;;;16.20;99.90;;;;;;4879583;29;20052;-78
2021/09/14 05:29:29;;;;;;;7.63;4.28;;;16.10;99.90;;;;;;4879347;29;20228;-78
2021/09/14 05:31:57;;;;;;;5.72;4.22;;;16.10;99.90;;;;;;4879475;29;20059;-78
2021/09/14 05:34:24;;;;;;;5.13;3.80;;;16.00;99.90;;;;;;4879427;29;20419;-78
2021/09/14 05:36:54;;;;;;;6.28;3.70;;;15.90;99.90;;;;;;4879285;29;20483;-78
2021/09/14 05:39:22;;;;;;;6.03;4.30;;;15.90;99.90;;;;;;4879415;29;20045;-78
2021/09/14 05:41:49;;;;;;;6.95;4.30;;;15.90;99.90;;;;;;4879261;29;20404;-78
2021/09/14 05:44:17;;;;;;;5.85;4.05;;;15.80;99.90;;;;;;4879514;29;20049;-78
2021/09/14 05:46:44;;;;;;;5.63;4.30;;;15.80;99.90;;;;;;4879124;29;20061;-78
2021/09/14 05:49:11;;;;;;;6.68;4.10;;;15.80;99.90;;;;;;4878918;29;20131;-78
2021/09/14 05:51:38;;;;;;;6.97;4.10;;;15.80;99.90;;;;;;4879275;29;20077;-78
2021/09/14 05:54:07;;;;;;;7.13;4.47;;;15.80;99.90;;;;;;4879065;29;20488;-78
2021/09/14 05:56:34;;;;;;;6.90;4.70;;;15.80;99.90;;;;;;4879050;29;20056;-78
2021/09/14 05:59:01;;;;;;;7.70;5.05;;;15.90;99.90;;;;;;4879167;29;20057;-78
2021/09/14 06:01:28;;;;;;;6.38;4.88;;;15.90;99.90;;;;;;4879079;29;20057;-78
2021/09/14 06:03:56;;;;;;;7.95;5.10;;;16.00;99.90;;;;;;4879077;29;20547;-78
2021/09/14 06:06:23;;;;;;;8.02;5.53;;;16.00;99.90;;;;;;4879169;29;20140;-78
2021/09/14 06:08:50;;;;;;;6.72;4.70;;;16.10;99.90;;;;;;4879150;29;20045;-77
2021/09/14 06:11:18;;;;;;;7.40;4.57;;;16.20;99.90;;;;;;4879023;29;20045;-78
2021/09/14 06:13:46;;;;;;;7.95;4.90;;;16.20;99.90;;;;;;4879099;29;20076;-78
2021/09/14 06:16:13;;;;;;;7.60;4.88;;;16.30;99.90;;;;;;4877580;29;20053;-80
2021/09/14 06:18:40;;;;;;;5.72;3.70;;;16.40;99.90;;;;;;4877084;29;20140;-81
2021/09/14 06:21:07;;;;;;;5.65;4.20;;;16.60;99.90;;;;;;4878139;29;20087;-82
2021/09/14 06:23:34;;;;;;;7.85;4.50;;;17.20;99.90;;;;;;4877214;29;20403;-81
2021/09/14 06:26:01;;;;;;;7.22;4.25;;;17.40;99.90;;;;;;4877587;29;20049;-82
2021/09/14 06:28:29;;;;;;;7.43;4.43;;;17.50;99.90;;;;;;4876183;29;20520;-80
2021/09/14 06:30:57;;;;;;;6.65;4.85;;;17.50;99.90;;;;;;4877355;29;20049;-80
2021/09/14 06:33:24;;;;;;;7.00;4.65;;;17.50;99.90;;;;;;4876494;29;20055;-79
2021/09/14 06:35:52;;;;;;;8.02;5.25;;;17.50;99.90;;;;;;4877838;29;20514;-80
2021/09/14 06:38:19;;;;;;;8.95;5.43;;;17.40;99.90;;;;;;4880632;29;20055;-79
2021/09/14 06:40:46;;;;;;;7.50;4.72;;;17.40;99.90;;;;;;4880825;29;20045;-79
2021/09/14 06:43:13;;;;;;;6.03;4.50;;;17.40;99.90;;;;;;4879538;29;20056;-80
2021/09/14 06:45:41;;;;;;;7.25;5.30;;;17.40;99.90;;;;;;4880070;29;20057;-80
2021/09/14 06:48:13;;;;;;;8.07;4.80;;;17.40;99.90;;;;;;4879890;29;20060;-79
2021/09/14 06:50:41;;;;;;;7.22;5.07;;;17.50;99.90;;;;;;4880729;29;20551;-79
2021/09/14 06:53:08;;;;;;;8.38;5.88;;;17.50;99.90;;;;;;4880886;29;20053;-79
2021/09/14 06:55:36;;;;;;;7.28;5.30;;;17.50;99.90;;;;;;4877744;29;20195;-82
2021/09/14 06:58:03;;;;;;;7.43;5.00;;;17.50;99.90;;;;;;4876378;29;20048;-82
2021/09/14 07:00:30;;;;;;;7.50;4.60;;;17.50;99.90;;;;;;4880343;29;20051;-82
2021/09/14 07:02:58;;;;;;;7.15;4.43;;;17.50;99.90;;;;;;4879742;29;20223;-82
2021/09/14 07:05:25;;;;;;;8.13;5.63;;;17.50;99.90;;;;;;4878709;29;20091;-81
2021/09/14 07:07:53;;;;;;;8.48;5.30;;;17.60;99.90;;;;;;4879624;29;20053;-82
2021/09/14 07:10:20;;;;;;;8.00;5.65;;;17.60;99.90;;;;;;4880045;29;20045;-82
2021/09/14 07:12:47;;;;;;;8.63;5.30;;;17.70;99.90;;;;;;4879299;29;20059;-82
2021/09/14 07:15:14;;;;;;;7.60;4.85;;;17.70;99.90;;;;;;4879939;29;20142;-80
2021/09/14 07:17:43;;;;;;;8.52;5.15;;;17.70;99.90;;;;;;4879804;29;20452;-82
2021/09/14 07:20:13;;;;;;;7.15;5.10;;;17.80;99.90;;;;;;4880008;29;20077;-81
2021/09/14 07:22:40;;;;;;;8.45;6.25;;;17.80;99.90;;;;;;4879504;29;20140;-80
2021/09/14 07:25:08;;;;;;;7.93;5.85;;;17.90;99.90;;;;;;4878824;29;20127;-80
2021/09/14 07:27:35;;;;;;;9.25;5.68;;;17.90;99.90;;;;;;4879470;29;20063;-80
2021/09/14 07:30:03;;;;;;;7.35;5.47;;;18.00;99.90;;;;;;4878219;29;20144;-80
2021/09/14 07:32:30;;;;;;;8.00;5.65;;;18.00;99.90;;;;;;4878984;29;20147;-81
2021/09/14 07:34:57;;;;;;;10.45;5.68;;;18.00;99.90;;;;;;4879309;29;20048;-86
2021/09/14 07:37:26;;;;;;;8.02;5.53;;;18.10;99.90;;;;;;4879599;29;20049;-80
2021/09/14 07:39:53;;;;;;;7.40;5.65;;;18.20;99.90;;;;;;4879491;29;20143;-80
2021/09/14 07:42:20;;;;;;;8.63;5.50;;;18.30;99.90;;;;;;4879559;29;20053;-80
2021/09/14 07:44:49;;;;;;;6.30;4.85;;;18.30;99.90;;;;;;4879356;29;20510;-81
2021/09/14 07:47:16;;;;;;;6.80;4.78;;;18.40;99.90;;;;;;4878835;29;20170;-81
2021/09/14 07:49:45;;;;;;;7.13;4.93;;;18.50;99.90;;;;;;4879315;29;20140;-80
2021/09/14 07:52:13;;;;;;;6.50;5.30;;;18.50;99.90;;;;;;4885788;29;20528;-84
2021/09/14 07:54:42;;;;;;;7.07;5.07;;;18.60;99.90;;;;;;4878926;29;20056;-82
2021/09/14 07:57:09;;;;;;;7.13;4.75;;;18.70;99.90;;;;;;4878929;29;20060;-79
2021/09/14 07:59:36;;;;;;;6.20;4.57;;;18.80;99.90;;;;;;4878426;29;20052;-77
2021/09/14 08:02:03;;;;;;;6.60;4.55;;;18.90;99.90;;;;;;4874781;29;20049;-81
2021/09/14 08:04:30;;;;;;;6.15;4.40;;;19.00;99.90;;;;;;4874300;29;20377;-82
2021/09/14 08:06:57;;;;;;;6.40;4.60;;;19.10;99.90;;;;;;4878823;29;20049;-78
2021/09/14 08:09:28;;;;;;;6.22;4.20;;;19.20;99.90;;;;;;4878708;29;20052;-78
2021/09/14 08:11:56;;;;;;;6.47;4.22;;;19.30;99.90;;;;;;4878982;29;20056;-80
2021/09/14 08:14:24;;;;;;;7.50;4.95;;;19.40;99.90;;;;;;4879558;29;20557;-78
2021/09/14 08:16:51;;;;;;;6.60;4.40;;;19.40;99.90;;;;;;4878542;29;20057;-85
2021/09/14 08:19:18;;;;;;;8.60;5.00;;;19.50;99.90;;;;;;4878796;29;20247;-81
2021/09/14 08:21:45;;;;;;;6.40;4.38;;;19.60;99.90;;;;;;4877456;29;20057;-81
2021/09/14 08:24:13;;;;;;;6.88;4.55;;;19.60;99.90;;;;;;4875963;29;20481;-83
2021/09/14 08:26:40;;;;;;;6.35;4.32;;;19.60;99.90;;;;;;4877641;29;20060;-80
2021/09/14 08:29:09;;;;;;;5.93;3.85;;;19.70;99.90;;;;;;4878208;29;20056;-80
2021/09/14 08:31:36;;;;;;;5.25;3.90;;;19.80;99.90;;;;;;4878400;29;20500;-82
2021/09/14 08:34:03;;;;;;;5.47;4.07;;;19.80;99.90;;;;;;4879241;29;20055;-80
2021/09/14 08:36:31;;;;;;;6.10;4.50;;;19.90;99.90;;;;;;4887706;29;20503;-79
2021/09/14 08:38:58;;;;;;;5.20;3.90;;;19.90;99.90;;;;;;4884033;29;20344;-80
2021/09/14 08:41:25;;;;;;;6.30;4.05;;;20.00;99.90;;;;;;4885658;29;20488;-79
2021/09/14 08:43:53;;;;;;;5.38;3.97;;;20.00;99.90;;;;;;4885477;29;20070;-80
2021/09/14 08:46:23;;;;;;;5.70;3.90;;;20.10;99.90;;;;;;4887722;29;20056;-79
2021/09/14 08:48:51;;;;;;;5.63;3.60;;;20.20;99.90;;;;;;4887061;29;20080;-80
2021/09/14 08:51:19;;;;;;;5.53;4.10;;;20.20;99.90;;;;;;4886547;29;20048;-79
2021/09/14 08:53:46;;;;;;;5.72;3.72;;;20.30;99.90;;;;;;4879588;29;20048;-79
2021/09/14 08:56:13;;;;;;;6.65;4.25;;;20.40;99.90;;;;;;4878916;29;20135;-81
2021/09/14 08:58:40;;;;;;;5.32;3.60;;;20.50;99.90;;;;;;4873790;29;20052;-81
2021/09/14 09:01:12;;;;;;;5.75;3.92;;;20.50;99.90;;;;;;4876625;29;20396;-79
2021/09/14 09:03:42;;;;;;;6.13;4.50;;;20.50;99.90;;;;;;4877811;29;20052;-80
2021/09/14 09:06:12;;;;;;;6.55;4.03;;;20.60;99.90;;;;;;4877827;29;20048;-80
2021/09/14 09:08:39;;;;;;;5.82;3.83;;;20.70;99.90;;;;;;4877777;29;20052;-80
2021/09/14 09:11:09;;;;;;;5.75;3.97;;;20.80;99.90;;;;;;4874227;29;20583;-86
2021/09/14 09:13:48;;;;;;;5.82;3.28;;;20.90;99.90;;;;;;4876616;29;20075;-80
2021/09/14 09:16:19;;;;;;;5.88;3.58;;;20.90;99.90;;;;;;4873274;29;20078;-80
2021/09/14 09:18:51;;;;;;;5.45;3.42;;;21.00;99.90;;;;;;4878320;29;20506;-79
2021/09/14 09:21:18;;;;;;;4.97;3.42;;;21.10;99.90;;;;;;4859613;29;20053;-79
2021/09/14 09:23:55;;;;;;;7.57;3.63;;;21.20;99.90;;;;;;4871483;29;20506;-80
2021/09/14 09:26:32;;;;;;;7.25;4.18;;;21.30;99.90;;;;;;4878069;29;20476;-80
2021/09/14 09:29:00;;;;;;;5.32;3.83;;;21.40;99.90;;;;;;4877319;29;20053;-80
2021/09/14 09:31:28;;;;;;;6.70;4.20;;;21.50;99.90;;;;;;4889980;29;20522;-81
2021/09/14 09:34:08;;;;;;;6.90;4.00;;;21.60;99.90;;;;;;4875566;29;20067;-82
2021/09/14 09:36:37;;;;;;;6.00;3.75;;;21.60;99.80;;;;;;4878277;29;20053;-82
2021/09/14 09:39:07;;;;;;;4.75;3.28;;;21.70;99.80;;;;;;4877531;29;20180;-86
2021/09/14 09:41:38;;;;;;;6.50;3.80;;;21.80;99.80;;;;;;4876690;29;20060;-86
2021/09/14 09:44:08;;;;;;;7.05;3.95;;;21.90;99.70;;;;;;4877747;29;20132;-85
2021/09/14 09:46:36;;;;;;;4.90;3.40;;;22.00;99.40;;;;;;4877733;29;20471;-85
2021/09/14 09:49:08;;;;;;;7.50;4.03;;;22.00;99.40;;;;;;4876382;29;20060;-86
2021/09/14 09:51:36;;;;;;;6.00;3.60;;;22.10;99.30;;;;;;4877246;29;20051;-89
2021/09/14 09:54:04;;;;;;;6.82;4.05;;;22.20;99.30;;;;;;4875764;29;20057;-86
2021/09/14 09:56:33;;;;;;;5.47;3.38;;;22.30;99.10;;;;;;4877883;29;20057;-86
2021/09/14 09:59:02;;;;;;;5.47;3.72;;;22.40;99.10;;;;;;4877269;29;20053;-84
2021/09/14 10:01:32;;;;;;;5.63;3.42;;;22.50;99.10;;;;;;4877757;29;20476;-84
2021/09/14 10:04:08;;;;;;;5.35;3.60;;;22.60;98.80;;;;;;4877747;29;20059;-84
2021/09/14 10:06:39;;;;;;;4.85;3.50;;;22.60;98.80;;;;;;4877515;29;20055;-84
2021/09/14 10:09:06;;;;;;;5.10;3.35;;;22.70;98.70;;;;;;4876922;29;20053;-86
2021/09/14 10:11:36;;;;;;;7.05;4.32;;;22.80;98.40;;;;;;4879305;29;20077;-84
2021/09/14 10:14:09;;;;;;;6.28;3.53;;;22.90;98.00;;;;;;4881580;29;20231;-82
2021/09/14 10:16:39;;;;;;;7.65;3.80;;;23.00;98.10;;;;;;4881715;29;20127;-84
2021/09/14 10:19:13;;;;;;;5.38;3.85;;;23.10;98.00;;;;;;4881285;29;20121;-83
2021/09/14 10:21:40;;;;;;;;;;;23.20;97.80;;;;;;4882747;29;20063;-82
2021/09/14 10:24:20;;;;;;;4.93;3.38;;;23.30;97.40;;;;;;4877907;29;20018;-82
2021/09/14 10:26:47;;;;;;;5.13;3.33;;;23.40;97.10;;;;;;4878741;29;20041;-83
2021/09/14 10:29:17;;;;;;;6.15;3.17;;;23.50;96.70;;;;;;4880873;29;20063;-83
2021/09/14 10:31:44;;;;;;;5.47;3.35;;;23.60;96.40;;;;;;4880822;29;20053;-83
2021/09/14 10:34:15;;;;;;;4.68;3.20;;;23.70;96.20;;;;;;4881051;29;20426;-83
2021/09/14 10:36:49;;;;;;;5.28;3.40;;;23.80;96.00;;;;;;4881206;29;20057;-82
2021/09/14 10:39:24;;;;;;;5.15;3.55;;;23.80;95.50;;;;;;4879846;29;20041;-84
2021/09/14 10:41:52;;;;;;;6.45;3.80;;;23.90;95.20;;;;;;4871510;29;20113;-83
2021/09/14 10:44:28;;;;;;;5.45;4.00;;;24.00;95.30;;;;;;4880533;29;20045;-84
2021/09/14 10:47:07;;;;;;;5.10;3.90;;;24.10;94.90;;;;;;4880449;29;20477;-84
2021/09/14 10:49:48;;;;;;;5.68;3.78;;;24.20;94.40;;;;;;4880559;29;20056;-85
2021/09/14 10:52:18;;;;;;;6.60;3.67;;;24.20;94.30;;;;;;4880768;29;20097;-90
2021/09/14 10:54:50;;;;;;;5.88;3.60;;;24.20;93.60;;;;;;4880986;29;20053;-85
2021/09/14 10:57:21;;;;;;;7.07;3.90;;;24.40;93.60;;;;;;4880544;29;20049;-83
2021/09/14 10:59:51;;;;;;;6.60;3.90;;;24.40;92.90;;;;;;4881894;29;20056;-84
2021/09/14 11:02:19;;;;;;;6.25;3.72;;;24.40;92.00;;;;;;4881480;29;20384;-85
2021/09/14 11:04:47;;;;;;;5.68;3.63;;;24.50;92.10;;;;;;4887199;29;20127;-87
2021/09/14 11:07:20;;;;;;;4.65;3.33;;;24.60;92.30;;;;;;4880959;29;20048;-85
2021/09/14 11:09:54;;;;;;;5.00;3.40;;;24.70;92.00;;;;;;4886609;29;20100;-85
2021/09/14 11:12:21;;;;;;;5.68;4.05;;;24.80;92.20;;;;;;4887397;29;20049;-86
2021/09/14 11:14:48;;;;;;;5.82;3.40;;;24.90;91.70;;;;;;4888173;29;20073;-84
2021/09/14 11:17:30;;;;;;;5.85;3.60;;;25.00;92.00;;;;;;4888269;29;20131;-84
2021/09/14 11:20:11;;;;;;;4.97;3.33;;;25.00;91.30;;;;;;4884699;29;20095;-86
2021/09/14 11:22:42;;;;;;;7.57;3.35;;;25.10;91.10;;;;;;4887827;29;20525;-86
2021/09/14 11:25:14;;;;;;;5.70;3.38;;;25.20;91.20;;;;;;4887270;29;20137;-86
2021/09/14 11:27:42;;;;;;;5.70;3.40;;;25.30;90.70;;;;;;4889076;29;20060;-86
2021/09/14 11:30:14;;;;;;;5.10;3.47;;;25.40;90.70;;;;;;4884346;29;20049;-84
2021/09/14 11:32:43;;;;;;;4.80;3.28;;;25.50;90.70;;;;;;4888642;29;20092;-87
2021/09/14 11:35:13;;;;;;;9.63;3.70;;;25.60;91.10;;;;;;4885874;29;20049;-87
2021/09/14 11:37:41;;;;;;;5.43;3.05;;;25.80;90.60;;;;;;4886758;29;20138;-83
2021/09/14 11:40:18;;;;;;;5.18;3.10;;;25.90;90.40;;;;;;4885078;29;20142;-85
2021/09/14 11:42:55;;;;;;;5.30;3.30;;;26.00;90.50;;;;;;4880262;29;20063;-88
2021/09/14 11:45:25;;;;;;;5.82;3.30;;;26.00;90.40;;;;;;4882594;29;20128;-87
2021/09/14 11:47:52;;;;;;;5.55;3.35;;;26.10;90.00;;;;;;4881083;29;20061;-86
2021/09/14 11:50:29;;;;;;;4.90;3.63;;;26.10;90.00;;;;;;4882233;29;20059;-87
2021/09/14 11:53:05;;;;;;;6.82;3.30;;;26.20;88.90;;;;;;4888345;29;20128;-88
2021/09/14 11:55:33;;;;;;;5.40;3.35;;;26.20;88.50;;;;;;4878709;29;20105;-91
2021/09/14 11:58:03;;;;;;;5.10;3.45;;;26.30;88.20;;;;;;4879478;29;20136;-88
2021/09/14 12:00:39;;;;;;;5.18;3.40;;;26.30;86.90;;;;;;4880111;29;20124;-88
2021/09/14 12:03:07;;;;;;;5.43;3.30;;;26.30;86.70;;;;;;4881048;29;20131;-88
2021/09/14 12:05:36;;;;;;;4.93;3.20;;;26.30;86.90;;;;;;4877636;29;20052;-87
2021/09/14 12:08:09;;;;;;;5.30;3.53;;;26.30;87.10;;;;;;4881853;29;20061;-86
2021/09/14 12:10:46;;;;;;;6.03;3.53;;;26.30;86.50;;;;;;4882582;29;20045;-86
2021/09/14 12:13:18;;;;;;;4.68;3.00;;;26.40;86.50;;;;;;4886862;29;20504;-87
2021/09/14 12:15:48;;;;;;;4.63;3.20;;;26.40;86.70;;;;;;4889068;29;20084;-88
2021/09/14 12:18:17;;;;;;;5.65;3.45;;;26.40;85.40;;;;;;4885589;29;20099;-87
2021/09/14 12:20:46;;;;;;;4.45;3.00;;;26.40;84.60;;;;;;4884493;29;20140;-87
2021/09/14 12:23:15;;;;;;;4.90;2.75;;;26.50;84.70;;;;;;4888428;29;20144;-87
2021/09/14 12:25:43;;;;;;;6.63;3.22;;;26.60;85.00;;;;;;4877527;29;20056;-83
2021/09/14 12:28:11;;;;;;;5.55;3.00;;;26.70;83.80;;;;;;4888638;29;20084;-85
2021/09/14 12:30:38;;;;;;;7.80;3.30;;;26.80;83.10;;;;;;4879241;29;20500;-83
2021/09/14 12:33:05;;;;;;;5.53;2.88;;;26.80;83.00;;;;;;4878638;29;20124;-85
2021/09/14 12:35:34;;;;;;;4.45;2.80;;;26.90;81.10;;;;;;4878249;29;20409;-86
2021/09/14 12:38:03;;;;;;;5.05;3.15;;;26.90;81.40;;;;;;4874805;29;20483;-83
2021/09/14 12:40:30;;;;;;;4.38;2.70;;;27.00;80.50;;;;;;4878491;29;20088;-84
2021/09/14 12:42:59;;;;;;;4.50;2.83;;;27.00;80.60;;;;;;4878173;29;20049;-86
2021/09/14 12:45:26;;;;;;;6.65;3.00;;;27.00;80.70;;;;;;4878628;29;20124;-85
2021/09/14 12:47:54;;;;;;;4.88;3.03;;;27.10;80.00;;;;;;4882263;29;20045;-85
2021/09/14 12:50:23;;;;;;;5.03;2.97;;;27.10;79.40;;;;;;4877753;29;20100;-85
2021/09/14 12:52:51;;;;;;;5.47;2.88;;;27.10;79.50;;;;;;4883549;29;20529;-85
2021/09/14 12:55:20;;;;;;;5.38;3.28;;;27.10;80.40;;;;;;4887193;29;20527;-85
2021/09/14 12:57:48;;;;;;;4.68;2.88;;;27.10;80.40;;;;;;4885900;29;20084;-84
2021/09/14 13:00:17;;;;;;;5.20;3.30;;;27.10;78.90;;;;;;4887456;29;20045;-80
2021/09/14 13:02:45;;;;;;;5.65;2.83;;;27.10;78.90;;;;;;4883914;29;20128;-80
2021/09/14 13:05:13;;;;;;;5.30;2.97;;;27.20;79.20;;;;;;4884253;29;20044;-80
2021/09/14 13:07:41;;;;;;;5.18;2.78;;;27.20;79.60;;;;;;4878540;29;20559;-80
2021/09/14 13:10:12;;;;;;;4.90;2.85;;;27.50;79.50;;;;;;4879580;29;20048;-80
2021/09/14 13:12:47;;;;;;;5.40;3.08;;;27.70;79.70;;;;;;4882118;29;20403;-81
2021/09/14 13:18:00;;;;;;;4.53;2.90;;;28.20;76.50;;;;;;4876945;29;20510;-81
2021/09/14 13:20:28;;;;;;;5.07;2.72;;;28.60;76.50;;;;;;4873593;29;20300;-83
2021/09/14 13:22:56;;;;;;;6.07;2.90;;;28.80;74.10;;;;;;4874339;29;20052;-81
2021/09/14 13:25:24;;;;;;;4.85;2.83;;;29.10;71.40;;;;;;4880918;29;20151;-86
2021/09/14 13:27:53;;;;;;;4.50;2.75;;;29.20;69.30;;;;;;4875630;29;20049;-81
2021/09/14 13:30:21;;;;;;;4.20;2.67;;;29.30;68.60;;;;;;4875770;29;20061;-81
2021/09/14 13:32:48;;;;;;;5.57;2.95;;;29.40;68.30;;;;;;4882252;29;20411;-81
2021/09/14 13:35:16;;;;;;;4.88;3.08;;;29.50;66.70;;;;;;4879016;29;20049;-82
2021/09/14 13:37:44;;;;;;;3.97;2.50;;;29.60;65.70;;;;;;4877675;29;20061;-82
2021/09/14 13:40:15;;;;;;;4.10;2.45;;;29.70;65.90;;;;;;4880306;29;20143;-82
2021/09/14 13:42:43;;;;;;;4.93;2.60;;;29.90;66.40;;;;;;4875631;29;20554;-82